createdAt,value
2018-08-24T00:00:04.852Z,23.33
2018-08-24T00:02:32.876Z,24.07
2018-08-24T00:05:00.891Z,25.83
2018-08-24T00:07:29.051Z,23.73
2018-08-24T00:09:56.964Z,22.93
2018-08-24T00:12:25.052Z,23.30
2018-08-24T00:14:53.087Z,23.23
2018-08-24T00:17:26.678Z,25.30
2018-08-24T00:19:54.670Z,25.00
2018-08-24T00:22:22.672Z,25.50
2018-08-24T00:24:50.701Z,24.60
2018-08-24T00:27:18.792Z,26.70
2018-08-24T00:29:46.792Z,25.10
2018-08-24T00:32:14.789Z,26.37
2018-08-24T00:34:42.790Z,25.70
2018-08-24T00:37:10.845Z,26.37
2018-08-24T00:39:42.248Z,26.37
2018-08-24T00:42:10.378Z,25.80
2018-08-24T00:44:38.420Z,23.93
2018-08-24T00:47:06.464Z,26.57
2018-08-24T00:49:34.464Z,25.60
2018-08-24T00:52:02.469Z,26.27
2018-08-24T00:54:30.484Z,24.50
2018-08-24T00:56:58.484Z,27.63
2018-08-24T00:59:26.513Z,24.00
2018-08-24T01:01:54.513Z,26.43
2018-08-24T01:04:27.906Z,25.47
2018-08-24T01:06:55.906Z,23.00
2018-08-24T01:09:23.936Z,22.37
2018-08-24T01:11:57.385Z,24.13
2018-08-24T01:14:25.380Z,22.67
2018-08-24T01:16:58.800Z,23.30
2018-08-24T01:19:26.830Z,21.87
2018-08-24T01:21:54.834Z,21.17
2018-08-24T01:24:27.014Z,20.80
2018-08-24T01:27:00.544Z,21.87
2018-08-24T01:29:28.547Z,24.07
2018-08-24T01:31:56.537Z,20.83
2018-08-24T01:34:24.552Z,21.77
2018-08-24T01:36:52.648Z,21.33
2018-08-24T01:39:20.672Z,20.50
2018-08-24T01:41:49.001Z,22.30
2018-08-24T01:44:17.169Z,20.47
2018-08-24T01:46:45.240Z,21.93
2018-08-24T01:49:13.266Z,21.40
2018-08-24T01:51:48.070Z,22.17
2018-08-24T01:54:16.069Z,20.80
2018-08-24T01:56:44.128Z,21.73
2018-08-24T01:59:12.837Z,21.30
2018-08-24T02:01:40.735Z,20.50
2018-08-24T02:04:08.757Z,20.53
2018-08-24T02:06:36.756Z,20.37
2018-08-24T02:09:08.417Z,18.93
2018-08-24T02:11:36.460Z,18.07
2018-08-24T02:14:09.856Z,19.03
2018-08-24T02:16:38.796Z,17.80
2018-08-24T02:20:11.936Z,18.00
2018-08-24T02:22:39.927Z,18.47
2018-08-24T02:25:07.928Z,16.70
2018-08-24T02:27:35.949Z,18.17
2018-08-24T02:30:04.597Z,18.57
2018-08-24T02:32:32.593Z,18.20
2018-08-24T02:35:00.610Z,18.00
2018-08-24T02:37:29.601Z,18.70
2018-08-24T02:39:57.592Z,17.67
2018-08-24T02:42:25.610Z,17.93
2018-08-24T02:44:53.651Z,17.40
2018-08-24T02:47:21.613Z,17.17
2018-08-24T02:49:49.622Z,19.20
2018-08-24T02:52:17.616Z,17.93
2018-08-24T02:54:45.620Z,18.27
2018-08-24T02:57:13.613Z,18.50
2018-08-24T02:59:41.618Z,17.10
2018-08-24T03:02:09.613Z,18.32
2018-08-24T03:04:37.613Z,16.40
2018-08-24T03:07:05.621Z,17.43
2018-08-24T03:09:33.715Z,17.87
2018-08-24T03:12:01.729Z,17.90
2018-08-24T03:14:29.733Z,15.63
2018-08-24T03:17:03.268Z,11.27
2018-08-24T03:19:31.321Z,7.97
2018-08-24T03:21:59.352Z,6.17
2018-08-24T03:24:27.458Z,4.40
2018-08-24T03:26:55.445Z,4.67
2018-08-24T03:29:23.488Z,3.10
2018-08-24T03:31:51.474Z,2.17
2018-08-24T03:34:19.472Z,2.03
2018-08-24T03:36:47.475Z,1.80
2018-08-24T03:39:15.497Z,2.50
2018-08-24T03:41:43.492Z,2.13
2018-08-24T03:44:11.485Z,2.03
2018-08-24T03:46:39.493Z,1.87
2018-08-24T03:49:07.478Z,2.00
2018-08-24T03:51:35.463Z,2.40
2018-08-24T03:54:07.659Z,2.07
2018-08-24T03:56:35.653Z,2.10
2018-08-24T03:59:03.641Z,2.50
2018-08-24T04:01:31.636Z,2.20
2018-08-24T04:03:59.625Z,2.37
2018-08-24T04:06:27.638Z,2.50
2018-08-24T04:08:55.634Z,2.60
2018-08-24T04:11:23.697Z,2.80
2018-08-24T04:13:51.676Z,2.60
2018-08-24T04:16:19.885Z,2.63
2018-08-24T04:18:47.885Z,3.13
2018-08-24T04:21:15.886Z,3.70
2018-08-24T04:23:44.049Z,3.20
2018-08-24T04:26:12.187Z,3.90
2018-08-24T04:28:40.044Z,3.07
2018-08-24T04:31:08.053Z,3.97
2018-08-24T04:33:36.097Z,3.50
2018-08-24T04:36:04.109Z,4.20
2018-08-24T04:38:32.078Z,4.60
2018-08-24T04:41:00.103Z,4.40
2018-08-24T04:43:28.087Z,4.67
2018-08-24T04:45:56.089Z,4.40
2018-08-24T04:48:24.070Z,4.40
2018-08-24T04:50:52.060Z,4.40
2018-08-24T04:53:20.089Z,3.97
2018-08-24T04:55:48.172Z,5.00
2018-08-24T04:58:16.186Z,5.07
2018-08-24T05:00:44.149Z,4.20
2018-08-24T05:03:12.285Z,5.10
2018-08-24T05:05:40.398Z,4.83
2018-08-24T05:08:08.318Z,5.67
2018-08-24T05:10:36.350Z,4.97
2018-08-24T05:13:04.349Z,4.93
2018-08-24T05:15:32.744Z,4.87
2018-08-24T05:18:00.724Z,4.70
2018-08-24T05:20:28.717Z,4.77
2018-08-24T05:22:56.726Z,4.70
2018-08-24T05:25:24.697Z,4.97
2018-08-24T05:27:52.776Z,4.20
2018-08-24T05:30:20.769Z,4.43
2018-08-24T05:32:48.950Z,4.43
2018-08-24T05:35:17.930Z,4.20
2018-08-24T05:37:45.970Z,4.57
2018-08-24T05:40:13.977Z,4.37
2018-08-24T05:42:42.229Z,3.97
2018-08-24T05:45:10.301Z,4.10
2018-08-24T05:47:38.424Z,3.70
2018-08-24T05:50:06.968Z,4.13
2018-08-24T05:52:34.985Z,4.40
2018-08-24T05:55:03.025Z,4.07
2018-08-24T05:57:31.096Z,4.20
2018-08-24T05:59:59.117Z,4.37
2018-08-24T06:02:27.172Z,4.80
2018-08-24T06:04:55.405Z,3.47
2018-08-24T06:07:24.488Z,4.43
2018-08-24T06:09:52.477Z,4.53
2018-08-24T06:12:20.484Z,4.43
2018-08-24T06:14:48.506Z,4.63
2018-08-24T06:17:21.942Z,4.40
2018-08-24T06:19:50.005Z,5.00
2018-08-24T06:22:18.121Z,4.87
2018-08-24T06:24:46.100Z,5.20
2018-08-24T06:27:14.089Z,5.27
2018-08-24T06:29:42.091Z,4.90
2018-08-24T06:32:10.081Z,4.37
2018-08-24T06:34:38.120Z,4.60
2018-08-24T06:37:06.299Z,5.00
2018-08-24T06:39:34.217Z,5.83
2018-08-24T06:42:02.348Z,5.83
2018-08-24T06:44:30.289Z,5.50
2018-08-24T06:46:58.296Z,6.17
2018-08-24T06:49:26.289Z,6.17
2018-08-24T06:51:54.292Z,5.70
2018-08-24T06:54:22.292Z,5.60
2018-08-24T06:56:50.256Z,5.10
2018-08-24T06:59:18.285Z,4.90
2018-08-24T07:01:46.304Z,6.50
2018-08-24T07:04:14.307Z,6.30
2018-08-24T07:06:42.652Z,5.60
2018-08-24T07:09:10.669Z,6.33
2018-08-24T07:11:38.777Z,6.33
2018-08-24T07:14:06.780Z,6.60
2018-08-24T07:16:34.758Z,6.77
2018-08-24T07:19:02.752Z,5.23
2018-08-24T07:21:30.760Z,6.20
2018-08-24T07:23:58.769Z,6.10
2018-08-24T07:26:26.786Z,5.70
2018-08-24T07:28:54.760Z,5.80
2018-08-24T07:31:22.744Z,7.00
2018-08-24T07:33:50.759Z,6.13
2018-08-24T07:36:18.768Z,7.13
2018-08-24T07:38:46.779Z,5.43
2018-08-24T07:41:14.808Z,6.80
2018-08-24T07:43:42.857Z,6.83
2018-08-24T07:46:10.861Z,6.50
2018-08-24T07:48:38.853Z,6.20
2018-08-24T07:51:06.849Z,6.10
2018-08-24T07:53:34.869Z,7.60
2018-08-24T07:56:02.921Z,6.57
2018-08-24T07:58:30.913Z,6.87
2018-08-24T08:00:58.902Z,5.77
2018-08-24T08:03:26.917Z,6.50
2018-08-24T08:05:54.929Z,6.20
2018-08-24T08:08:22.989Z,6.70
2018-08-24T08:10:51.013Z,5.97
2018-08-24T08:13:19.025Z,5.57
2018-08-24T08:15:47.053Z,6.77
2018-08-24T08:18:15.174Z,6.63
2018-08-24T08:20:43.896Z,6.63
2018-08-24T08:23:11.921Z,6.97
2018-08-24T08:25:39.962Z,7.20
2018-08-24T08:28:07.976Z,7.00
2018-08-24T08:30:36.186Z,5.80
2018-08-24T08:33:04.245Z,6.50
2018-08-24T08:35:32.465Z,6.30
2018-08-24T08:38:00.504Z,6.33
2018-08-24T08:40:28.532Z,6.37
2018-08-24T08:42:56.594Z,6.10
2018-08-24T08:45:24.702Z,7.00
2018-08-24T08:47:52.768Z,5.80
2018-08-24T08:50:20.781Z,5.00
2018-08-24T08:52:48.829Z,4.87
2018-08-24T08:55:16.869Z,5.60
2018-08-24T08:57:45.044Z,4.97
2018-08-24T09:00:13.045Z,5.87
2018-08-24T09:02:41.044Z,7.00
2018-08-24T09:05:09.061Z,5.27
2018-08-24T09:07:37.052Z,5.50
2018-08-24T09:10:05.070Z,5.00
2018-08-24T09:12:33.055Z,6.17
2018-08-24T09:15:01.109Z,6.20
2018-08-24T09:17:34.601Z,6.47
2018-08-24T09:20:07.933Z,7.00
2018-08-24T09:22:41.676Z,7.17
2018-08-24T09:25:15.033Z,6.70
2018-08-24T09:27:52.220Z,6.33
2018-08-24T09:30:21.088Z,7.60
2018-08-24T09:32:49.161Z,7.50
2018-08-24T09:35:17.442Z,7.80
2018-08-24T09:37:45.516Z,8.57
2018-08-24T09:40:13.569Z,8.50
2018-08-24T09:42:41.597Z,7.10
2018-08-24T09:45:09.611Z,7.83
2018-08-24T09:47:43.037Z,8.20
2018-08-24T09:50:16.397Z,8.30
2018-08-24T09:52:48.820Z,9.10
2018-08-24T09:55:17.068Z,9.13
2018-08-24T09:57:45.144Z,11.30
2018-08-24T10:00:13.161Z,11.03
2018-08-24T10:02:44.137Z,10.93
2018-08-24T10:05:17.697Z,11.07
2018-08-24T10:07:49.805Z,14.63
2018-08-24T10:10:17.858Z,14.17
2018-08-24T10:12:45.849Z,14.00
2018-08-24T10:15:13.878Z,14.10
2018-08-24T10:17:41.953Z,13.77
2018-08-24T10:20:10.012Z,15.40
2018-08-24T10:22:38.024Z,14.10
2018-08-24T10:25:06.115Z,12.27
2018-08-24T10:27:34.242Z,13.97
2018-08-24T10:30:02.252Z,12.73
2018-08-24T10:32:30.254Z,13.00
2018-08-24T10:34:58.244Z,11.77
2018-08-24T10:37:26.329Z,9.60
2018-08-24T10:39:54.358Z,8.87
2018-08-24T10:42:22.388Z,8.73
2018-08-24T10:44:50.423Z,8.20
2018-08-24T10:47:18.552Z,9.43
2018-08-24T10:49:46.485Z,7.67
2018-08-24T10:52:14.628Z,8.73
2018-08-24T10:54:42.959Z,7.30
2018-08-24T10:57:11.072Z,7.70
2018-08-24T10:59:39.068Z,7.00
2018-08-24T11:02:07.476Z,7.80
2018-08-24T11:04:35.352Z,6.20
2018-08-24T11:07:03.638Z,6.20
2018-08-24T11:09:31.658Z,7.17
2018-08-24T11:11:59.656Z,6.83
2018-08-24T11:14:27.662Z,7.03
2018-08-24T11:16:55.745Z,5.37
2018-08-24T11:19:23.713Z,5.03
2018-08-24T11:21:51.740Z,3.80
2018-08-24T11:24:19.848Z,3.50
2018-08-24T11:26:47.898Z,3.60
2018-08-24T11:29:15.898Z,3.03
2018-08-24T11:31:44.877Z,2.53
2018-08-24T11:34:13.324Z,2.77
2018-08-24T11:36:41.593Z,3.20
2018-08-24T11:39:10.018Z,3.77
2018-08-24T11:41:38.508Z,2.43
2018-08-24T11:44:06.656Z,2.57
2018-08-24T11:46:35.201Z,2.63
2018-08-24T11:49:03.232Z,2.40
2018-08-24T11:51:35.449Z,2.63
2018-08-24T11:54:03.467Z,3.03
2018-08-24T11:56:31.461Z,2.80
2018-08-24T11:58:59.496Z,2.30
2018-08-24T12:01:27.554Z,2.80
2018-08-24T12:03:55.797Z,3.43
2018-08-24T12:06:23.977Z,2.47
2018-08-24T12:08:52.018Z,2.40
2018-08-24T12:11:20.049Z,3.10
2018-08-24T12:13:48.106Z,3.20
2018-08-24T12:16:16.426Z,2.43
2018-08-24T12:18:46.468Z,2.67
2018-08-24T12:21:14.518Z,2.20
2018-08-24T12:23:42.766Z,2.00
2018-08-24T12:26:11.282Z,2.20
2018-08-24T12:28:39.447Z,2.30
2018-08-24T12:31:07.756Z,2.30
2018-08-24T12:33:35.765Z,1.77
2018-08-24T12:36:04.821Z,2.00
2018-08-24T12:38:32.833Z,1.87
2018-08-24T12:41:00.985Z,2.07
2018-08-24T12:43:29.017Z,1.50
2018-08-24T12:45:56.993Z,1.97
2018-08-24T12:48:25.025Z,1.97
2018-08-24T12:50:53.032Z,1.57
2018-08-24T12:53:21.045Z,2.13
2018-08-24T12:55:49.057Z,1.67
2018-08-24T12:58:17.091Z,2.07
2018-08-24T13:00:45.106Z,1.73
2018-08-24T13:03:13.249Z,1.77
2018-08-24T13:05:41.497Z,1.60
2018-08-24T13:08:09.753Z,1.50
2018-08-24T13:10:38.017Z,2.10
2018-08-24T13:13:06.116Z,1.80
2018-08-24T13:15:34.179Z,1.60
2018-08-24T13:18:02.300Z,1.87
2018-08-24T13:20:30.284Z,1.73
2018-08-24T13:22:58.389Z,1.50
2018-08-24T13:25:26.416Z,1.87
2018-08-24T13:27:54.425Z,1.57
2018-08-24T13:30:22.426Z,2.02
2018-08-24T13:32:50.484Z,1.57
2018-08-24T13:35:25.190Z,2.20
2018-08-24T13:37:53.624Z,1.67
2018-08-24T13:40:21.988Z,1.90
2018-08-24T13:42:50.025Z,1.60
2018-08-24T13:45:18.029Z,1.50
2018-08-24T13:47:47.064Z,2.07
2018-08-24T13:50:15.071Z,1.50
2018-08-24T13:52:43.133Z,2.10
2018-08-24T13:55:11.154Z,1.93
2018-08-24T13:57:39.146Z,1.50
2018-08-24T14:00:07.553Z,2.03
2018-08-24T14:02:35.654Z,1.40
2018-08-24T14:05:03.716Z,1.60
2018-08-24T14:07:31.788Z,1.50
2018-08-24T14:09:59.797Z,2.03
2018-08-24T14:12:27.804Z,1.73
2018-08-24T14:14:55.834Z,1.60
2018-08-24T14:17:23.837Z,1.40
2018-08-24T14:19:51.860Z,2.83
2018-08-24T14:22:19.848Z,2.13
2018-08-24T14:24:47.853Z,1.50
2018-08-24T14:27:15.885Z,2.03
2018-08-24T14:29:44.232Z,1.73
2018-08-24T14:32:12.212Z,1.47
2018-08-24T14:34:40.628Z,1.50
2018-08-24T14:37:08.693Z,1.67
2018-08-24T14:39:36.763Z,1.37
2018-08-24T14:42:04.829Z,1.47
2018-08-24T14:44:32.972Z,1.70
2018-08-24T14:47:01.009Z,1.77
2018-08-24T14:49:29.038Z,1.33
2018-08-24T14:51:57.040Z,1.70
2018-08-24T14:54:25.084Z,1.33
2018-08-24T14:56:53.102Z,1.73
2018-08-24T14:59:21.125Z,2.10
2018-08-24T15:01:49.112Z,1.43
2018-08-24T15:04:17.148Z,2.17
2018-08-24T15:06:45.125Z,1.60
2018-08-24T15:09:13.166Z,1.87
2018-08-24T15:11:41.172Z,1.40
2018-08-24T15:14:09.738Z,1.60
2018-08-24T15:16:37.761Z,1.40
2018-08-24T15:19:05.937Z,2.30
2018-08-24T15:21:33.924Z,1.50
2018-08-24T15:24:01.953Z,2.00
2018-08-24T15:26:29.948Z,1.80
2018-08-24T15:28:58.013Z,1.60
2018-08-24T15:31:25.981Z,1.80
2018-08-24T15:33:54.005Z,2.30
2018-08-24T15:36:21.996Z,1.33
2018-08-24T15:38:50.029Z,1.83
2018-08-24T15:41:18.047Z,1.60
2018-08-24T15:43:46.075Z,1.63
2018-08-24T15:46:14.143Z,1.57
2018-08-24T15:48:42.081Z,1.37
2018-08-24T15:51:10.105Z,1.63
2018-08-24T15:53:38.102Z,1.80
2018-08-24T15:56:06.130Z,1.57
2018-08-24T15:58:34.221Z,1.37
2018-08-24T16:01:02.249Z,1.67
2018-08-24T16:03:30.281Z,2.63
2018-08-24T16:05:58.292Z,1.40
2018-08-24T16:08:26.343Z,2.07
2018-08-24T16:10:54.356Z,1.53
2018-08-24T16:13:22.364Z,2.07
2018-08-24T16:15:50.413Z,2.07
2018-08-24T16:18:23.005Z,1.50
2018-08-24T16:20:51.291Z,1.60
2018-08-24T16:23:19.325Z,1.90
2018-08-24T16:25:47.634Z,1.90
2018-08-24T16:28:15.640Z,1.70
2018-08-24T16:30:43.796Z,1.43
2018-08-24T16:33:11.827Z,1.27
2018-08-24T16:35:39.857Z,1.70
2018-08-24T16:38:07.850Z,1.20
2018-08-24T16:40:35.968Z,1.50
2018-08-24T16:43:03.980Z,1.47
2018-08-24T16:45:31.985Z,1.70
2018-08-24T16:48:00.017Z,1.67
2018-08-24T16:50:28.074Z,1.43
2018-08-24T16:52:56.058Z,1.53
2018-08-24T16:55:24.055Z,1.83
2018-08-24T16:57:52.804Z,1.47
2018-08-24T17:00:20.819Z,1.30
2018-08-24T17:02:48.800Z,1.70
2018-08-24T17:05:16.883Z,1.47
2018-08-24T17:07:45.952Z,1.60
2018-08-24T17:10:13.964Z,1.60
2018-08-24T17:12:42.024Z,1.27
2018-08-24T17:15:09.989Z,2.20
2018-08-24T17:17:37.981Z,1.83
2018-08-24T17:20:06.197Z,1.50
2018-08-24T17:22:34.225Z,1.57
2018-08-24T17:25:02.274Z,1.80
2018-08-24T17:27:30.269Z,1.50
2018-08-24T17:29:58.258Z,1.53
2018-08-24T17:32:26.292Z,1.80
2018-08-24T17:34:54.286Z,1.47
2018-08-24T17:37:22.397Z,1.53
2018-08-24T17:39:50.456Z,1.37
2018-08-24T17:42:18.472Z,1.50
2018-08-24T17:44:46.477Z,1.80
2018-08-24T17:47:14.492Z,1.57
2018-08-24T17:49:42.481Z,1.30
2018-08-24T17:52:10.808Z,1.50
2018-08-24T17:54:38.807Z,1.57
2018-08-24T17:57:06.828Z,1.77
2018-08-24T17:59:34.838Z,1.47
2018-08-24T18:02:03.081Z,1.23
2018-08-24T18:04:31.101Z,1.63
2018-08-24T18:06:59.129Z,1.97
2018-08-24T18:09:27.118Z,1.70
2018-08-24T18:11:55.138Z,2.00
2018-08-24T18:14:23.130Z,1.50
2018-08-24T18:16:51.645Z,1.63
2018-08-24T18:19:19.669Z,1.87
2018-08-24T18:21:47.801Z,1.53
2018-08-24T18:24:15.821Z,1.70
2018-08-24T18:26:43.820Z,1.80
2018-08-24T18:29:11.816Z,1.23
2018-08-24T18:31:39.918Z,1.40
2018-08-24T18:34:07.906Z,1.83
2018-08-24T18:36:36.074Z,1.73
2018-08-24T18:39:06.290Z,1.50
2018-08-24T18:41:34.388Z,1.63
2018-08-24T18:44:02.377Z,1.30
2018-08-24T18:46:30.375Z,1.57
2018-08-24T18:48:58.364Z,1.87
2018-08-24T18:51:26.361Z,1.30
2018-08-24T18:53:54.360Z,1.57
2018-08-24T18:56:22.391Z,1.33
2018-08-24T18:58:50.574Z,1.53
2018-08-24T19:01:18.821Z,1.57
2018-08-24T19:03:47.825Z,1.60
2018-08-24T19:06:15.838Z,1.70
2018-08-24T19:08:43.873Z,1.23
2018-08-24T19:11:17.366Z,1.37
2018-08-24T19:13:45.460Z,1.30
2018-08-24T19:16:13.431Z,1.40
2018-08-24T19:18:46.959Z,1.23
2018-08-24T19:21:20.356Z,2.57
2018-08-24T19:23:48.661Z,1.20
2018-08-24T19:26:16.713Z,1.40
2018-08-24T19:28:50.081Z,1.60
2018-08-24T19:31:18.124Z,1.30
2018-08-24T19:33:46.173Z,1.23
2018-08-24T19:36:14.164Z,1.27
2018-08-24T19:38:42.185Z,1.37
2018-08-24T19:42:18.277Z,1.80
2018-08-24T19:44:46.329Z,1.17
2018-08-24T19:47:19.761Z,1.60
2018-08-24T19:49:47.761Z,1.53
2018-08-24T19:52:15.784Z,1.70
2018-08-24T19:54:43.824Z,1.50
2018-08-24T19:57:17.341Z,1.30
2018-08-24T19:59:45.337Z,1.43
2018-08-24T20:02:13.391Z,2.00
2018-08-24T20:04:41.418Z,1.27
2018-08-24T20:07:14.980Z,1.80
2018-08-24T20:09:48.665Z,1.00
2018-08-24T20:12:16.681Z,1.30
2018-08-24T20:14:50.180Z,1.10
2018-08-24T20:17:23.736Z,1.60
2018-08-24T20:19:51.729Z,1.57
2018-08-24T20:22:19.746Z,1.33
2018-08-24T20:24:47.733Z,1.23
2018-08-24T20:27:15.754Z,1.30
2018-08-24T20:29:43.796Z,1.50
2018-08-24T20:32:11.781Z,1.40
2018-08-24T20:34:39.773Z,1.50
2018-08-24T20:37:07.781Z,1.50
2018-08-24T20:39:35.772Z,1.30
2018-08-24T20:42:03.796Z,1.30
2018-08-24T20:44:31.801Z,1.10
2018-08-24T20:46:59.793Z,1.17
2018-08-24T20:49:27.782Z,1.40
2018-08-24T20:51:55.781Z,2.13
2018-08-24T20:54:23.789Z,1.60
2018-08-24T20:56:51.837Z,1.20
2018-08-24T20:59:19.836Z,1.13
2018-08-24T21:01:47.876Z,1.00
2018-08-24T21:04:16.008Z,1.50
2018-08-24T21:06:43.974Z,1.40
2018-08-24T21:09:18.722Z,1.23
2018-08-24T21:11:46.741Z,1.50
2018-08-24T21:14:14.797Z,1.30
2018-08-24T21:16:42.874Z,1.60
2018-08-24T21:19:10.820Z,1.83
2018-08-24T21:21:38.828Z,1.40
2018-08-24T21:24:07.407Z,1.60
2018-08-24T21:26:35.566Z,1.70
2018-08-24T21:29:03.655Z,1.63
2018-08-24T21:31:31.592Z,1.37
2018-08-24T21:33:59.664Z,1.70
2018-08-24T21:36:27.686Z,1.63
2018-08-24T21:38:55.792Z,1.47
2018-08-24T21:41:23.824Z,1.37
2018-08-24T21:43:51.876Z,1.97
2018-08-24T21:46:19.921Z,1.10
2018-08-24T21:48:48.149Z,1.40
2018-08-24T21:51:17.190Z,1.43
2018-08-24T21:53:45.261Z,1.57
2018-08-24T21:56:13.357Z,1.40
2018-08-24T21:58:41.579Z,1.80
2018-08-24T22:01:09.565Z,1.50
2018-08-24T22:03:37.546Z,1.60
2018-08-24T22:06:05.616Z,1.20
2018-08-24T22:08:33.653Z,1.50
2018-08-24T22:11:01.719Z,1.83
2018-08-24T22:13:29.705Z,1.97
2018-08-24T22:15:57.857Z,1.43
2018-08-24T22:18:25.881Z,1.70
2018-08-24T22:20:53.994Z,1.40
2018-08-24T22:23:22.220Z,1.60
2018-08-24T22:25:50.277Z,1.60
2018-08-24T22:28:18.290Z,1.70
2018-08-24T22:30:46.267Z,1.23
2018-08-24T22:33:14.240Z,1.27
2018-08-24T22:35:42.281Z,1.50
2018-08-24T22:38:10.277Z,1.83
2018-08-24T22:40:38.390Z,1.23
2018-08-24T22:43:10.582Z,2.00
2018-08-24T22:45:38.652Z,1.27
2018-08-24T22:48:06.633Z,2.17
2018-08-24T22:50:34.693Z,1.33
2018-08-24T22:53:02.681Z,1.70
2018-08-24T22:55:30.694Z,1.50
2018-08-24T22:57:59.549Z,1.40
2018-08-24T23:00:27.546Z,1.23
2018-08-24T23:02:55.549Z,1.60
2018-08-24T23:05:23.662Z,1.80
2018-08-24T23:07:51.734Z,2.10
2018-08-24T23:10:19.779Z,1.60
2018-08-24T23:12:47.821Z,1.70
2018-08-24T23:15:15.832Z,1.90
2018-08-24T23:17:43.856Z,2.03
2018-08-24T23:20:11.857Z,2.73
2018-08-24T23:22:39.853Z,1.93
2018-08-24T23:25:07.968Z,1.83
2018-08-24T23:27:36.008Z,2.17
2018-08-24T23:30:04.455Z,1.57
2018-08-24T23:32:33.000Z,2.20
2018-08-24T23:35:00.984Z,1.57
2018-08-24T23:37:29.205Z,1.57
2018-08-24T23:39:57.188Z,1.90
2018-08-24T23:42:26.225Z,1.40
2018-08-24T23:44:54.301Z,1.50
2018-08-24T23:47:22.344Z,1.33
2018-08-24T23:49:50.332Z,1.30
2018-08-24T23:52:18.433Z,2.20
2018-08-24T23:54:46.525Z,1.50
2018-08-24T23:57:14.545Z,1.20
2018-08-24T23:59:42.568Z,1.60
